Time,TemperatureF,DewpointF,PressureIn,WindDirection,WindDirectionDegrees,WindSpeedMPH,WindSpeedGustMPH,Humidity,HourlyPrecipIn,Conditions,Clouds,dailyrainin,SoftwareType,DateUTC
2014-01-03 00:00:00,68.8,67.9,29.94,SSE,152,1.2,1.2,97,0.00,RA,,0.00,WeatherDisplay:10.37,2014-01-03 05:00:00,
2014-01-03 00:01:00,68.8,67.9,29.94,SSE,152,1.2,0.0,97,0.00,RA,,0.00,WeatherDisplay:10.37,2014-01-03 05:01:00,
2014-01-03 00:02:00,68.8,67.9,29.94,SSE,152,0.0,0.0,97,0.00,RA,,0.00,WeatherDisplay:10.37,2014-01-03 05:02:00,
2014-01-03 00:07:00,68.7,67.8,29.95,SSE,149,0.0,0.0,97,0.00,RA,,0.00,WeatherDisplay:10.37,2014-01-03 05:07:00,
2014-01-03 00:12:00,68.6,67.7,29.94,SSE,150,0.0,0.0,97,0.00,CLR,,0.00,WeatherDisplay:10.37,2014-01-03 05:12:00,
2014-01-03 00:17:00,68.6,67.7,29.95,SSE,149,0.0,0.0,97,0.00,CLR,,0.00,WeatherDisplay:10.37,2014-01-03 05:17:00,
2014-01-03 00:22:00,68.4,67.5,29.94,SSE,149,0.0,0.0,97,0.00,CLR,,0.00,WeatherDisplay:10.37,2014-01-03 05:22:00,
2014-01-03 00:27:00,68.3,67.4,29.94,SSE,149,0.0,0.0,97,0.00,CLR,,0.00,WeatherDisplay:10.37,2014-01-03 05:27:00,
2014-01-03 00:32:00,68.1,67.2,29.95,SSE,149,0.0,0.0,97,0.00,CLR,,0.00,WeatherDisplay:10.37,2014-01-03 05:32:00,
2014-01-03 00:37:00,68.0,67.1,29.95,SSE,150,1.0,1.0,97,0.00,CLR,,0.00,WeatherDisplay:10.37,2014-01-03 05:37:00,
2014-01-03 00:42:00,67.9,67.0,29.94,SE,142,0.0,0.0,97,0.00,CLR,,0.00,WeatherDisplay:10.37,2014-01-03 05:42:00,
2014-01-03 00:47:00,67.8,66.9,29.94,SE,142,0.0,0.0,97,0.00,CLR,,0.00,WeatherDisplay:10.37,2014-01-03 05:47:00,
2014-01-03 00:52:00,67.7,66.8,29.94,SE,143,0.0,0.0,97,0.00,CLR,,0.00,WeatherDisplay:10.37,2014-01-03 05:52:00,
2014-01-03 00:57:00,67.6,66.7,29.94,SE,142,0.0,0.0,97,0.00,CLR,,0.00,WeatherDisplay:10.37,2014-01-03 05:57:00,
2014-01-03 01:02:00,67.6,67.0,29.94,SE,143,0.0,0.0,98,0.00,CLR,,0.00,WeatherDisplay:10.37,2014-01-03 06:02:00,
2014-01-03 01:04:00,67.6,67.0,29.94,SE,142,0.0,0.0,98,0.00,CLR,,0.00,WeatherDisplay:10.37,2014-01-03 06:04:00,
2014-01-03 01:07:00,67.6,67.0,29.94,SE,142,0.0,0.0,98,0.00,CLR,,0.00,WeatherDisplay:10.37,2014-01-03 06:07:00,
2014-01-03 01:12:00,67.6,67.0,29.94,SE,142,0.0,0.0,98,0.00,CLR,,0.00,WeatherDisplay:10.37,2014-01-03 06:12:00,
2014-01-03 01:38:00,67.6,67.0,29.95,SE,142,0.0,0.0,98,0.00,CLR,,0.00,WeatherDisplay:10.37,2014-01-03 06:38:00,
2014-01-03 01:43:00,67.8,67.2,29.93,SSE,162,1.0,1.0,98,0.00,CLR,,0.00,WeatherDisplay:10.37,2014-01-03 06:43:00,
2014-01-03 01:48:00,67.8,67.2,29.94,NE,40,3.5,3.5,98,0.00,CLR,,0.00,WeatherDisplay:10.37,2014-01-03 06:48:00,
2014-01-03 01:53:00,67.1,65.9,29.94,NW,312,11.5,11.5,96,0.01,RA,,0.01,WeatherDisplay:10.37,2014-01-03 06:53:00,
2014-01-03 01:58:00,66.5,65.3,29.95,WNW,285,13.8,13.8,96,0.01,RA,,0.01,WeatherDisplay:10.37,2014-01-03 06:58:00,
2014-01-03 02:03:00,66.1,64.9,29.95,WNW,291,10.4,10.4,96,0.01,CLR,,0.01,WeatherDisplay:10.37,2014-01-03 07:03:00,
2014-01-03 02:08:00,66.1,64.9,29.95,NW,314,8.0,8.0,96,0.01,CLR,,0.01,WeatherDisplay:10.37,2014-01-03 07:08:00,
2014-01-03 02:13:00,66.1,64.9,29.96,NW,305,11.5,11.5,96,0.01,CLR,,0.01,WeatherDisplay:10.37,2014-01-03 07:13:00,
2014-01-03 02:18:00,66.0,64.8,29.96,NW,319,10.4,10.4,96,0.01,CLR,,0.01,WeatherDisplay:10.37,2014-01-03 07:18:00,
2014-01-03 02:23:00,65.7,63.9,29.97,West,269,16.1,16.1,94,0.01,CLR,,0.01,WeatherDisplay:10.37,2014-01-03 07:23:00,
2014-01-03 02:28:00,65.1,63.0,29.97,West,259,15.0,15.0,93,0.01,CLR,,0.01,WeatherDisplay:10.37,2014-01-03 07:28:00,
2014-01-03 02:33:00,64.7,62.3,29.97,WNW,295,10.4,10.4,92,0.01,CLR,,0.01,WeatherDisplay:10.37,2014-01-03 07:33:00,
2014-01-03 02:38:00,64.3,61.6,29.97,NNW,342,13.0,13.0,91,0.01,CLR,,0.01,WeatherDisplay:10.37,2014-01-03 07:38:00,
2014-01-03 02:43:00,64.2,61.2,29.97,NW,319,16.0,16.0,90,0.01,CLR,,0.01,WeatherDisplay:10.37,2014-01-03 07:43:00,
2014-01-03 02:48:00,64.1,61.1,29.97,NNW,340,8.1,8.1,90,0.01,CLR,,0.01,WeatherDisplay:10.37,2014-01-03 07:48:00,
2014-01-03 02:53:00,64.1,61.1,29.97,NW,316,9.2,9.2,90,0.00,CLR,,0.01,WeatherDisplay:10.37,2014-01-03 07:53:00,
2014-01-03 02:58:00,63.9,60.6,29.97,NW,326,13.8,13.8,89,0.00,CLR,,0.01,WeatherDisplay:10.37,2014-01-03 07:58:00,
2014-01-03 03:03:00,63.8,60.2,29.98,West,273,8.1,8.1,88,0.00,CLR,,0.01,WeatherDisplay:10.37,2014-01-03 08:03:00,
2014-01-03 03:08:00,63.7,60.1,29.98,NW,304,11.5,11.5,88,0.00,CLR,,0.01,WeatherDisplay:10.37,2014-01-03 08:08:00,
2014-01-03 03:13:00,63.7,60.4,29.98,West,274,8.0,8.0,89,0.00,CLR,,0.01,WeatherDisplay:10.37,2014-01-03 08:13:00,
2014-01-03 03:18:00,63.6,60.3,29.98,NNW,347,11.5,11.5,89,0.00,CLR,,0.01,WeatherDisplay:10.37,2014-01-03 08:18:00,
2014-01-03 03:23:00,63.2,58.9,29.98,WNW,297,12.7,12.7,86,0.00,CLR,,0.01,WeatherDisplay:10.37,2014-01-03 08:23:00,
2014-01-03 03:28:00,62.9,58.3,29.97,NNW,340,9.2,9.2,85,0.00,CLR,,0.01,WeatherDisplay:10.37,2014-01-03 08:28:00,
2014-01-03 03:33:00,62.8,58.2,29.97,North,352,11.5,11.5,85,0.00,CLR,,0.01,WeatherDisplay:10.37,2014-01-03 08:33:00,
2014-01-03 03:38:00,62.6,58.4,29.98,NW,323,11.5,11.5,86,0.00,CLR,,0.01,WeatherDisplay:10.37,2014-01-03 08:38:00,
2014-01-03 03:43:00,62.4,58.5,29.98,NW,312,9.2,9.2,87,0.00,CLR,,0.01,WeatherDisplay:10.37,2014-01-03 08:43:00,
2014-01-03 03:48:00,62.2,58.3,29.98,NNW,335,13.0,13.0,87,0.00,CLR,,0.01,WeatherDisplay:10.37,2014-01-03 08:48:00,
2014-01-03 03:53:00,61.9,57.3,29.98,NNW,346,9.2,9.2,85,0.00,CLR,,0.01,WeatherDisplay:10.37,2014-01-03 08:53:00,
2014-01-03 03:58:00,61.7,56.8,29.99,NW,313,12.7,12.7,84,0.00,CLR,,0.01,WeatherDisplay:10.37,2014-01-03 08:58:00,
2014-01-03 04:03:00,61.5,56.6,30.00,NW,322,8.1,8.1,84,0.00,CLR,,0.01,WeatherDisplay:10.37,2014-01-03 09:03:00,
2014-01-03 04:08:00,61.4,56.5,30.00,NW,304,8.0,8.0,84,0.00,CLR,,0.01,WeatherDisplay:10.37,2014-01-03 09:08:00,
2014-01-03 04:13:00,61.3,56.4,30.00,NNW,345,15.0,15.0,84,0.00,CLR,,0.01,WeatherDisplay:10.37,2014-01-03 09:13:00,
2014-01-03 04:18:00,61.1,56.2,30.00,NNW,328,11.5,11.5,84,0.00,CLR,,0.01,WeatherDisplay:10.37,2014-01-03 09:18:00,
2014-01-03 04:23:00,61.0,55.8,30.00,West,281,8.1,8.1,83,0.00,CLR,,0.01,WeatherDisplay:10.37,2014-01-03 09:23:00,
2014-01-03 04:28:00,60.9,55.7,30.00,NW,312,9.2,9.2,83,0.00,CLR,,0.01,WeatherDisplay:10.37,2014-01-03 09:28:00,
2014-01-03 04:33:00,60.8,55.6,30.00,NW,305,10.4,10.4,83,0.00,CLR,,0.01,WeatherDisplay:10.37,2014-01-03 09:33:00,
2014-01-03 04:38:00,60.7,55.5,30.00,NNW,336,6.9,6.9,83,0.00,CLR,,0.01,WeatherDisplay:10.37,2014-01-03 09:38:00,
2014-01-03 04:43:00,60.6,55.4,30.00,NW,314,9.2,9.2,83,0.00,CLR,,0.01,WeatherDisplay:10.37,2014-01-03 09:43:00,
2014-01-03 04:48:00,60.5,55.3,30.00,NW,308,8.1,8.1,83,0.00,CLR,,0.01,WeatherDisplay:10.37,2014-01-03 09:48:00,
2014-01-03 04:53:00,60.4,55.2,30.01,NW,310,12.7,12.7,83,0.00,CLR,,0.01,WeatherDisplay:10.37,2014-01-03 09:53:00,
2014-01-03 04:58:00,60.3,54.8,30.01,NW,304,8.1,8.1,82,0.00,CLR,,0.01,WeatherDisplay:10.37,2014-01-03 09:58:00,
2014-01-03 05:03:00,60.2,54.7,30.01,NW,305,8.1,8.1,82,0.00,CLR,,0.01,WeatherDisplay:10.37,2014-01-03 10:03:00,
2014-01-03 05:08:00,60.2,54.7,30.01,North,352,8.1,8.1,82,0.00,CLR,,0.01,WeatherDisplay:10.37,2014-01-03 10:08:00,
2014-01-03 05:13:00,60.1,54.9,30.02,NW,314,5.0,5.0,83,0.00,CLR,,0.01,WeatherDisplay:10.37,2014-01-03 10:13:00,
2014-01-03 05:18:00,60.0,54.8,30.02,WNW,290,8.1,8.1,83,0.00,CLR,,0.01,WeatherDisplay:10.37,2014-01-03 10:18:00,
2014-01-03 05:23:00,59.9,54.7,30.02,WNW,297,8.1,8.1,83,0.00,CLR,,0.01,WeatherDisplay:10.37,2014-01-03 10:23:00,
2014-01-03 05:28:00,59.9,55.1,30.03,NW,314,6.9,6.9,84,0.00,CLR,,0.01,WeatherDisplay:10.37,2014-01-03 10:28:00,
2014-01-03 05:33:00,59.7,54.5,30.03,NNW,342,9.0,9.0,83,0.00,CLR,,0.01,WeatherDisplay:10.37,2014-01-03 10:33:00,
2014-01-03 05:38:00,59.5,52.3,30.02,NW,322,13.8,13.8,77,0.00,CLR,,0.01,WeatherDisplay:10.37,2014-01-03 10:38:00,
2014-01-03 05:43:00,59.5,52.3,30.03,NW,319,18.4,18.4,77,0.00,CLR,,0.01,WeatherDisplay:10.37,2014-01-03 10:43:00,
2014-01-03 05:48:00,59.3,52.4,30.02,NW,314,11.5,11.5,78,0.00,CLR,,0.01,WeatherDisplay:10.37,2014-01-03 10:48:00,
2014-01-03 05:53:00,59.1,52.2,30.02,NW,314,15.0,15.0,78,0.00,CLR,,0.01,WeatherDisplay:10.37,2014-01-03 10:53:00,
2014-01-03 05:58:00,58.9,51.7,30.03,NNW,335,16.1,16.1,77,0.00,CLR,,0.01,WeatherDisplay:10.37,2014-01-03 10:58:00,
2014-01-03 06:03:00,58.8,52.0,30.02,NNW,333,12.7,12.7,78,0.00,CLR,,0.01,WeatherDisplay:10.37,2014-01-03 11:03:00,
2014-01-03 06:08:00,58.7,52.2,30.03,NNW,328,8.1,8.1,79,0.00,CLR,,0.01,WeatherDisplay:10.37,2014-01-03 11:08:00,
2014-01-03 06:13:00,58.5,52.4,30.03,North,356,6.9,6.9,80,0.00,CLR,,0.01,WeatherDisplay:10.37,2014-01-03 11:13:00,
2014-01-03 06:18:00,58.2,51.7,30.03,NW,325,15.0,15.0,79,0.00,CLR,,0.01,WeatherDisplay:10.37,2014-01-03 11:18:00,
2014-01-03 06:23:00,58.0,51.2,30.04,NW,316,13.0,13.0,78,0.00,CLR,,0.01,WeatherDisplay:10.37,2014-01-03 11:23:00,
2014-01-03 06:28:00,57.9,50.7,30.04,NW,321,11.5,11.5,77,0.00,CLR,,0.01,WeatherDisplay:10.37,2014-01-03 11:28:00,
2014-01-03 06:33:00,57.7,50.9,30.04,NNW,328,13.0,13.0,78,0.00,CLR,,0.01,WeatherDisplay:10.37,2014-01-03 11:33:00,
2014-01-03 06:38:00,57.6,50.8,30.04,NNW,328,12.0,12.0,78,0.00,CLR,,0.01,WeatherDisplay:10.37,2014-01-03 11:38:00,
2014-01-03 06:43:00,57.4,50.9,30.04,NW,311,17.3,17.3,79,0.00,CLR,,0.01,WeatherDisplay:10.37,2014-01-03 11:43:00,
2014-01-03 06:48:00,57.2,50.7,30.05,NW,322,13.0,13.0,79,0.00,CLR,,0.01,WeatherDisplay:10.37,2014-01-03 11:48:00,
2014-01-03 06:53:00,57.0,50.9,30.06,NNW,346,11.5,11.5,80,0.00,CLR,,0.01,WeatherDisplay:10.37,2014-01-03 11:53:00,
2014-01-03 06:58:00,56.9,51.1,30.06,NNW,333,6.9,6.9,81,0.00,CLR,,0.01,WeatherDisplay:10.37,2014-01-03 11:58:00,
2014-01-03 07:03:00,56.7,50.9,30.06,NNW,346,16.1,16.1,81,0.00,CLR,,0.01,WeatherDisplay:10.37,2014-01-03 12:03:00,
2014-01-03 07:08:00,56.5,50.7,30.06,North,359,12.7,12.7,81,0.00,CLR,,0.01,WeatherDisplay:10.37,2014-01-03 12:08:00,
2014-01-03 07:13:00,56.3,50.5,30.06,NNW,331,15.0,15.0,81,0.00,CLR,,0.01,WeatherDisplay:10.37,2014-01-03 12:13:00,
2014-01-03 07:18:00,56.1,50.3,30.06,NNW,340,13.8,13.8,81,0.00,CLR,,0.01,WeatherDisplay:10.37,2014-01-03 12:18:00,
2014-01-03 07:23:00,56.0,50.3,30.06,NNE,15,13.0,13.0,81,0.00,CLR,,0.01,WeatherDisplay:10.37,2014-01-03 12:23:00,
2014-01-03 07:28:00,55.8,49.7,30.07,NW,309,13.8,13.8,80,0.00,CLR,,0.01,WeatherDisplay:10.37,2014-01-03 12:28:00,
2014-01-03 07:33:00,55.6,49.5,30.08,NW,322,12.7,12.7,80,0.00,CLR,,0.01,WeatherDisplay:10.37,2014-01-03 12:33:00,
2014-01-03 07:38:00,55.5,49.1,30.08,WNW,286,13.8,13.8,79,0.00,CLR,,0.01,WeatherDisplay:10.37,2014-01-03 12:38:00,
2014-01-03 07:43:00,55.5,48.8,30.09,NNW,338,8.0,8.0,78,0.00,CLR,,0.01,WeatherDisplay:10.37,2014-01-03 12:43:00,
2014-01-03 07:48:00,55.4,46.5,30.10,NNE,15,16.1,16.1,72,0.00,CLR,,0.01,WeatherDisplay:10.37,2014-01-03 12:48:00,
2014-01-03 07:53:00,55.4,46.9,30.10,North,355,15.0,15.0,73,0.00,CLR,,0.01,WeatherDisplay:10.37,2014-01-03 12:53:00,
2014-01-03 07:58:00,55.2,46.3,30.11,NNW,338,10.4,10.4,72,0.00,CLR,,0.01,WeatherDisplay:10.37,2014-01-03 12:58:00,
2014-01-03 08:03:00,54.9,46.0,30.12,NNW,328,11.5,11.5,72,0.00,CLR,,0.01,WeatherDisplay:10.37,2014-01-03 13:03:00,
2014-01-03 08:08:00,54.8,46.3,30.12,NNW,334,10.4,10.4,73,0.00,CLR,,0.01,WeatherDisplay:10.37,2014-01-03 13:08:00,
2014-01-03 08:13:00,54.8,46.7,30.11,NNW,340,6.9,6.9,74,0.00,CLR,,0.01,WeatherDisplay:10.37,2014-01-03 13:13:00,
2014-01-03 08:18:00,55.1,47.3,30.11,NW,326,4.6,4.6,75,0.00,CLR,,0.01,WeatherDisplay:10.37,2014-01-03 13:18:00,
2014-01-03 08:23:00,55.3,47.2,30.11,North,352,8.1,8.1,74,0.00,CLR,,0.01,WeatherDisplay:10.37,2014-01-03 13:23:00,
2014-01-03 08:28:00,55.1,45.1,30.11,NNW,334,12.0,12.0,69,0.00,CLR,,0.01,WeatherDisplay:10.37,2014-01-03 13:28:00,
2014-01-03 08:33:00,55.0,45.8,30.11,NW,312,11.5,11.5,71,0.00,CLR,,0.01,WeatherDisplay:10.37,2014-01-03 13:33:00,
2014-01-03 08:38:00,54.6,41.4,30.12,NW,324,14.0,14.0,61,0.00,CLR,,0.01,WeatherDisplay:10.37,2014-01-03 13:38:00,
2014-01-03 08:43:00,54.5,40.0,30.14,NNW,333,18.0,18.0,58,0.00,CLR,,0.01,WeatherDisplay:10.37,2014-01-03 13:43:00,
2014-01-03 08:48:00,54.1,37.8,30.14,NW,309,11.5,11.5,54,0.00,CLR,,0.01,WeatherDisplay:10.37,2014-01-03 13:48:00,
2014-01-03 08:53:00,54.1,38.3,30.14,NNW,334,10.4,10.4,55,0.00,CLR,,0.01,WeatherDisplay:10.37,2014-01-03 13:53:00,
2014-01-03 08:58:00,54.4,38.6,30.14,NW,314,11.5,11.5,55,0.00,CLR,,0.01,WeatherDisplay:10.37,2014-01-03 13:58:00,
2014-01-03 09:03:00,54.4,38.6,30.14,NNW,348,16.0,16.0,55,0.00,CLR,,0.01,WeatherDisplay:10.37,2014-01-03 14:03:00,
2014-01-03 09:08:00,53.9,39.0,30.14,North,11,13.8,13.8,57,0.00,CLR,,0.01,WeatherDisplay:10.37,2014-01-03 14:08:00,
2014-01-03 09:13:00,53.8,39.4,30.14,NW,315,11.5,11.5,58,0.00,CLR,,0.01,WeatherDisplay:10.37,2014-01-03 14:13:00,
2014-01-03 09:18:00,54.2,41.0,30.13,NNW,332,11.5,11.5,61,0.00,CLR,,0.01,WeatherDisplay:10.37,2014-01-03 14:18:00,
2014-01-03 09:23:00,54.2,41.5,30.13,North,349,11.5,11.5,62,0.00,CLR,,0.01,WeatherDisplay:10.37,2014-01-03 14:23:00,
2014-01-03 09:28:00,54.2,41.5,30.14,NNW,340,13.0,13.0,62,0.00,CLR,,0.01,WeatherDisplay:10.37,2014-01-03 14:28:00,
2014-01-03 09:33:00,54.5,42.2,30.13,NW,323,12.0,12.0,63,0.00,CLR,,0.01,WeatherDisplay:10.37,2014-01-03 14:33:00,
2014-01-03 09:38:00,54.9,42.5,30.13,NNW,329,15.0,15.0,63,0.00,CLR,,0.01,WeatherDisplay:10.37,2014-01-03 14:38:00,
2014-01-03 09:43:00,55.3,43.7,30.13,NNW,336,13.8,13.8,65,0.00,CLR,,0.01,WeatherDisplay:10.37,2014-01-03 14:43:00,
2014-01-03 09:48:00,55.0,43.4,30.14,NNW,332,12.0,12.0,65,0.00,CLR,,0.01,WeatherDisplay:10.37,2014-01-03 14:48:00,
2014-01-03 09:53:00,55.5,44.7,30.14,NNW,332,13.8,13.8,67,0.00,CLR,,0.01,WeatherDisplay:10.37,2014-01-03 14:53:00,
2014-01-03 09:58:00,55.3,44.1,30.13,NNW,338,16.1,16.1,66,0.00,CLR,,0.01,WeatherDisplay:10.37,2014-01-03 14:58:00,
2014-01-03 10:03:00,55.4,44.2,30.13,North,352,15.0,15.0,66,0.00,CLR,,0.01,WeatherDisplay:10.37,2014-01-03 15:03:00,
2014-01-03 10:08:00,55.5,44.3,30.13,NE,39,10.4,10.4,66,0.00,CLR,,0.01,WeatherDisplay:10.37,2014-01-03 15:08:00,
2014-01-03 10:13:00,55.9,45.1,30.13,NNW,332,10.0,10.0,67,0.00,CLR,,0.01,WeatherDisplay:10.37,2014-01-03 15:13:00,
2014-01-03 10:18:00,55.5,43.5,30.14,NNW,342,15.0,15.0,64,0.00,CLR,,0.01,WeatherDisplay:10.37,2014-01-03 15:18:00,
2014-01-03 10:23:00,55.7,44.1,30.15,North,9,11.5,11.5,65,0.00,CLR,,0.01,WeatherDisplay:10.37,2014-01-03 15:23:00,
2014-01-03 10:28:00,56.2,42.5,30.14,NNW,338,15.0,15.0,60,0.00,CLR,,0.01,WeatherDisplay:10.37,2014-01-03 15:28:00,
2014-01-03 10:33:00,56.2,42.1,30.14,NNW,334,13.8,13.8,59,0.00,CLR,,0.01,WeatherDisplay:10.37,2014-01-03 15:33:00,
2014-01-03 10:38:00,56.3,42.6,30.14,NNW,337,11.5,11.5,60,0.00,CLR,,0.01,WeatherDisplay:10.37,2014-01-03 15:38:00,
2014-01-03 10:43:00,55.6,42.4,30.14,North,352,13.8,13.8,61,0.00,CLR,,0.01,WeatherDisplay:10.37,2014-01-03 15:43:00,
2014-01-03 10:48:00,55.3,42.1,30.14,NNE,30,13.8,13.8,61,0.00,CLR,,0.01,WeatherDisplay:10.37,2014-01-03 15:48:00,
2014-01-03 10:53:00,55.3,43.3,30.14,NW,322,9.2,9.2,64,0.00,CLR,,0.01,WeatherDisplay:10.37,2014-01-03 15:53:00,
2014-01-03 10:55:00,55.5,43.5,30.14,NNW,328,10.0,10.0,64,0.00,CLR,,0.01,WeatherDisplay:10.37,2014-01-03 15:55:00,
2014-01-03 10:58:00,55.5,43.5,30.14,NNW,328,10.0,10.0,64,0.00,CLR,,0.01,WeatherDisplay:10.37,2014-01-03 15:58:00,
2014-01-03 11:03:00,55.5,43.5,30.14,NNW,328,10.0,10.0,64,0.00,CLR,,0.01,WeatherDisplay:10.37,2014-01-03 16:03:00,
2014-01-03 11:29:00,57.5,43.7,30.13,NNW,335,12.0,12.0,60,0.00,CLR,,0.01,WeatherDisplay:10.37,2014-01-03 16:29:00,
2014-01-03 11:31:00,57.3,44.0,30.12,North,360,11.5,11.5,61,0.00,CLR,,0.01,WeatherDisplay:10.37,2014-01-03 16:31:00,
2014-01-03 11:34:00,57.3,44.0,30.12,North,360,11.5,11.5,61,0.00,CLR,,0.01,WeatherDisplay:10.37,2014-01-03 16:34:00,
2014-01-03 11:39:00,57.3,44.0,30.12,North,360,11.5,11.5,61,0.00,CLR,,0.01,WeatherDisplay:10.37,2014-01-03 16:39:00,
2014-01-03 12:04:00,57.9,47.0,30.12,NNW,330,16.0,16.0,67,0.00,CLR,,0.01,WeatherDisplay:10.37,2014-01-03 17:04:00,
2014-01-03 12:09:00,57.9,47.4,30.12,NNW,334,11.5,11.5,68,0.00,CLR,,0.01,WeatherDisplay:10.37,2014-01-03 17:09:00,
2014-01-03 12:14:00,57.8,47.3,30.12,NNW,330,11.5,11.5,68,0.00,CLR,,0.01,WeatherDisplay:10.37,2014-01-03 17:14:00,
2014-01-03 12:19:00,57.5,47.4,30.11,NNW,328,12.7,12.7,69,0.00,CLR,,0.01,WeatherDisplay:10.37,2014-01-03 17:19:00,
2014-01-03 12:24:00,57.5,47.0,30.11,NNE,16,11.5,11.5,68,0.00,CLR,,0.01,WeatherDisplay:10.37,2014-01-03 17:24:00,
2014-01-03 12:29:00,57.3,46.0,30.11,NNW,333,15.0,15.0,66,0.00,CLR,,0.01,WeatherDisplay:10.37,2014-01-03 17:29:00,
2014-01-03 12:34:00,57.4,45.3,30.11,NNE,12,11.5,11.5,64,0.00,CLR,,0.01,WeatherDisplay:10.37,2014-01-03 17:34:00,
2014-01-03 12:39:00,57.4,44.5,30.12,NW,314,12.7,12.7,62,0.00,CLR,,0.01,WeatherDisplay:10.37,2014-01-03 17:39:00,
2014-01-03 12:44:00,57.4,42.3,30.12,NW,323,11.5,11.5,57,0.00,CLR,,0.01,WeatherDisplay:10.37,2014-01-03 17:44:00,
2014-01-03 12:49:00,57.2,41.6,30.12,NNE,32,15.0,15.0,56,0.00,CLR,,0.01,WeatherDisplay:10.37,2014-01-03 17:49:00,
2014-01-03 12:54:00,58.1,41.5,30.12,North,6,18.4,18.4,54,0.00,CLR,,0.01,WeatherDisplay:10.37,2014-01-03 17:54:00,
2014-01-03 12:59:00,57.7,40.7,30.12,NW,319,13.8,13.8,53,0.00,CLR,,0.01,WeatherDisplay:10.37,2014-01-03 17:59:00,
2014-01-03 13:04:00,57.6,40.1,30.12,NNW,330,11.5,11.5,52,0.00,CLR,,0.01,WeatherDisplay:10.37,2014-01-03 18:04:00,
2014-01-03 13:09:00,57.8,40.8,30.12,NNW,344,15.0,15.0,53,0.00,CLR,,0.01,WeatherDisplay:10.37,2014-01-03 18:09:00,
2014-01-03 13:14:00,57.4,39.4,30.12,North,358,15.0,15.0,51,0.00,CLR,,0.01,WeatherDisplay:10.37,2014-01-03 18:14:00,
2014-01-03 13:19:00,57.8,39.8,30.12,NNE,25,15.0,15.0,51,0.00,CLR,,0.01,WeatherDisplay:10.37,2014-01-03 18:19:00,
2014-01-03 13:24:00,57.4,39.9,30.12,North,7,12.7,12.7,52,0.00,CLR,,0.01,WeatherDisplay:10.37,2014-01-03 18:24:00,
2014-01-03 13:29:00,57.5,40.0,30.12,NNE,18,11.5,11.5,52,0.00,CLR,,0.01,WeatherDisplay:10.37,2014-01-03 18:29:00,
2014-01-03 13:34:00,57.8,39.3,30.12,NNE,17,11.5,11.5,50,0.00,CLR,,0.01,WeatherDisplay:10.37,2014-01-03 18:34:00,
2014-01-03 13:39:00,57.5,39.0,30.12,NNE,19,11.5,11.5,50,0.00,CLR,,0.01,WeatherDisplay:10.37,2014-01-03 18:39:00,
2014-01-03 13:44:00,57.2,38.7,30.12,NW,324,15.0,15.0,50,0.00,CLR,,0.01,WeatherDisplay:10.37,2014-01-03 18:44:00,
2014-01-03 13:49:00,57.1,38.6,30.12,NNE,29,16.1,16.1,50,0.00,CLR,,0.01,WeatherDisplay:10.37,2014-01-03 18:49:00,
2014-01-03 13:54:00,57.1,38.6,30.12,NW,326,11.5,11.5,50,0.00,CLR,,0.01,WeatherDisplay:10.37,2014-01-03 18:54:00,
2014-01-03 13:59:00,57.4,38.4,30.12,North,352,12.7,12.7,49,0.00,CLR,,0.01,WeatherDisplay:10.37,2014-01-03 18:59:00,
2014-01-03 14:04:00,57.7,38.7,30.12,NNE,23,13.8,13.8,49,0.00,CLR,,0.01,WeatherDisplay:10.37,2014-01-03 19:04:00,
2014-01-03 14:09:00,58.2,39.1,30.12,NNE,26,11.5,11.5,49,0.00,CLR,,0.01,WeatherDisplay:10.37,2014-01-03 19:09:00,
2014-01-03 14:14:00,58.1,38.0,30.12,NNE,29,13.8,13.8,47,0.00,CLR,,0.01,WeatherDisplay:10.37,2014-01-03 19:14:00,
2014-01-03 14:19:00,58.3,37.6,30.12,NNE,23,11.5,11.5,46,0.00,CLR,,0.01,WeatherDisplay:10.37,2014-01-03 19:19:00,
2014-01-03 14:24:00,58.5,37.2,30.12,NW,314,10.0,10.2,45,0.00,CLR,,0.01,WeatherDisplay:10.37,2014-01-03 19:24:00,
2014-01-03 14:29:00,58.6,38.4,30.12,NNW,330,12.7,12.7,47,0.00,CLR,,0.01,WeatherDisplay:10.37,2014-01-03 19:29:00,
2014-01-03 14:34:00,58.5,36.6,30.12,NNE,29,8.1,8.1,44,0.00,CLR,,0.01,WeatherDisplay:10.37,2014-01-03 19:34:00,
2014-01-03 14:39:00,58.6,37.3,30.12,North,4,11.5,11.5,45,0.00,CLR,,0.01,WeatherDisplay:10.37,2014-01-03 19:39:00,
2014-01-03 14:44:00,58.7,36.8,30.11,NNE,19,12.7,12.7,44,0.00,CLR,,0.01,WeatherDisplay:10.37,2014-01-03 19:44:00,
2014-01-03 14:49:00,58.9,37.6,30.11,NNW,342,15.0,15.0,45,0.00,CLR,,0.01,WeatherDisplay:10.37,2014-01-03 19:49:00,
2014-01-03 14:54:00,59.2,39.0,30.11,NNW,330,9.2,9.2,47,0.00,CLR,,0.01,WeatherDisplay:10.37,2014-01-03 19:54:00,
2014-01-03 14:59:00,59.3,37.4,30.11,NNE,19,16.1,16.1,44,0.00,CLR,,0.01,WeatherDisplay:10.37,2014-01-03 19:59:00,
2014-01-03 15:04:00,59.1,37.2,30.11,North,11,11.5,11.5,44,0.00,CLR,,0.01,WeatherDisplay:10.37,2014-01-03 20:04:00,
2014-01-03 15:09:00,59.1,37.2,30.11,NNE,33,15.0,15.0,44,0.00,CLR,,0.01,WeatherDisplay:10.37,2014-01-03 20:09:00,
2014-01-03 15:14:00,58.8,36.9,30.11,NE,37,9.2,9.2,44,0.00,CLR,,0.01,WeatherDisplay:10.37,2014-01-03 20:14:00,
2014-01-03 15:19:00,59.1,38.3,30.12,NNW,331,15.0,15.0,46,0.00,CLR,,0.01,WeatherDisplay:10.37,2014-01-03 20:19:00,
2014-01-03 15:24:00,59.0,38.2,30.12,NNW,328,12.7,12.7,46,0.00,CLR,,0.01,WeatherDisplay:10.37,2014-01-03 20:24:00,
2014-01-03 15:29:00,58.9,38.7,30.12,NNW,338,12.7,12.7,47,0.00,CLR,,0.01,WeatherDisplay:10.37,2014-01-03 20:29:00,
2014-01-03 15:34:00,59.4,38.6,30.11,NW,322,13.8,13.8,46,0.00,CLR,,0.01,WeatherDisplay:10.37,2014-01-03 20:34:00,
2014-01-03 15:39:00,59.5,36.4,30.11,NE,40,17.3,17.3,42,0.00,CLR,,0.01,WeatherDisplay:10.37,2014-01-03 20:39:00,
2014-01-03 15:44:00,59.3,36.8,30.11,NNE,18,11.5,11.5,43,0.00,CLR,,0.01,WeatherDisplay:10.37,2014-01-03 20:44:00,
2014-01-03 15:49:00,59.2,36.7,30.11,NNE,29,17.3,17.3,43,0.00,CLR,,0.01,WeatherDisplay:10.37,2014-01-03 20:49:00,
2014-01-03 15:54:00,58.8,36.3,30.12,NNW,338,11.5,11.5,43,0.00,CLR,,0.01,WeatherDisplay:10.37,2014-01-03 20:54:00,
2014-01-03 15:59:00,58.2,36.9,30.12,NNW,348,13.8,13.8,45,0.00,CLR,,0.01,WeatherDisplay:10.37,2014-01-03 20:59:00,
2014-01-03 16:04:00,57.5,37.9,30.13,North,356,14.0,14.0,48,0.00,CLR,,0.01,WeatherDisplay:10.37,2014-01-03 21:04:00,
2014-01-03 16:09:00,57.2,38.7,30.13,NNW,328,6.9,6.9,50,0.00,CLR,,0.01,WeatherDisplay:10.37,2014-01-03 21:09:00,
2014-01-03 16:14:00,57.1,39.1,30.13,NW,325,13.0,13.0,51,0.00,CLR,,0.01,WeatherDisplay:10.37,2014-01-03 21:14:00,
2014-01-03 16:19:00,56.9,39.9,30.13,NNW,345,13.8,13.8,53,0.00,CLR,,0.01,WeatherDisplay:10.37,2014-01-03 21:19:00,
2014-01-03 16:24:00,56.8,40.8,30.14,NE,41,16.1,16.1,55,0.00,CLR,,0.01,WeatherDisplay:10.37,2014-01-03 21:24:00,
2014-01-03 16:29:00,56.9,41.4,30.14,North,6,16.0,16.0,56,0.00,CLR,,0.01,WeatherDisplay:10.37,2014-01-03 21:29:00,
2014-01-03 16:34:00,57.0,41.9,30.13,NNE,13,17.3,17.3,57,0.00,CLR,,0.01,WeatherDisplay:10.37,2014-01-03 21:34:00,
2014-01-03 16:39:00,57.0,42.4,30.14,NNW,336,18.4,18.4,58,0.00,CLR,,0.01,WeatherDisplay:10.37,2014-01-03 21:39:00,
2014-01-03 16:44:00,56.8,43.1,30.14,North,350,16.1,16.1,60,0.00,CLR,,0.01,WeatherDisplay:10.37,2014-01-03 21:44:00,
2014-01-03 16:49:00,56.5,43.2,30.14,NNE,15,12.7,12.7,61,0.00,CLR,,0.01,WeatherDisplay:10.37,2014-01-03 21:49:00,
2014-01-03 16:54:00,56.4,43.5,30.14,NNW,333,13.8,13.8,62,0.00,CLR,,0.01,WeatherDisplay:10.37,2014-01-03 21:54:00,
2014-01-03 16:59:00,56.3,43.4,30.14,NNW,342,13.8,13.8,62,0.00,CLR,,0.01,WeatherDisplay:10.37,2014-01-03 21:59:00,
2014-01-03 17:04:00,56.3,43.9,30.14,NNE,25,16.1,16.1,63,0.00,CLR,,0.01,WeatherDisplay:10.37,2014-01-03 22:04:00,
2014-01-03 17:09:00,56.2,43.8,30.14,NNE,20,16.1,16.1,63,0.00,CLR,,0.01,WeatherDisplay:10.37,2014-01-03 22:09:00,
2014-01-03 17:14:00,56.0,44.4,30.15,NNW,328,7.0,7.0,65,0.00,CLR,,0.01,WeatherDisplay:10.37,2014-01-03 22:14:00,
2014-01-03 17:19:00,55.9,44.7,30.15,NNE,29,12.7,12.7,66,0.00,CLR,,0.01,WeatherDisplay:10.37,2014-01-03 22:19:00,
2014-01-03 17:24:00,55.9,45.1,30.15,NE,44,11.5,11.5,67,0.00,CLR,,0.01,WeatherDisplay:10.37,2014-01-03 22:24:00,
2014-01-03 17:29:00,55.8,45.4,30.15,NNE,13,10.0,10.0,68,0.00,CLR,,0.01,WeatherDisplay:10.37,2014-01-03 22:29:00,
2014-01-03 17:34:00,55.5,45.5,30.15,NNE,21,10.4,10.4,69,0.00,CLR,,0.01,WeatherDisplay:10.37,2014-01-03 22:34:00,
2014-01-03 17:39:00,55.2,45.2,30.16,NNE,20,11.5,11.5,69,0.00,CLR,,0.01,WeatherDisplay:10.37,2014-01-03 22:39:00,
2014-01-03 17:44:00,55.0,45.4,30.16,NE,39,8.0,8.0,70,0.00,CLR,,0.01,WeatherDisplay:10.37,2014-01-03 22:44:00,
2014-01-03 17:49:00,54.8,45.6,30.16,NNW,328,8.0,8.0,71,0.00,CLR,,0.01,WeatherDisplay:10.37,2014-01-03 22:49:00,
2014-01-03 17:54:00,54.5,45.7,30.16,North,1,9.0,9.0,72,0.00,CLR,,0.01,WeatherDisplay:10.37,2014-01-03 22:54:00,
2014-01-03 17:59:00,54.1,45.3,30.16,NNW,334,11.5,11.5,72,0.00,CLR,,0.01,WeatherDisplay:10.37,2014-01-03 22:59:00,
2014-01-03 18:04:00,53.8,45.3,30.16,NNE,29,13.0,13.0,73,0.00,CLR,,0.01,WeatherDisplay:10.37,2014-01-03 23:04:00,
2014-01-03 18:09:00,53.6,45.2,30.16,NW,324,12.7,12.7,73,0.00,CLR,,0.01,WeatherDisplay:10.37,2014-01-03 23:09:00,
2014-01-03 18:14:00,53.4,45.3,30.16,North,9,12.0,12.0,74,0.00,CLR,,0.01,WeatherDisplay:10.37,2014-01-03 23:14:00,
2014-01-03 18:19:00,53.2,45.1,30.16,NE,44,15.0,15.0,74,0.00,CLR,,0.01,WeatherDisplay:10.37,2014-01-03 23:19:00,
2014-01-03 18:25:00,53.0,44.9,30.16,NNW,338,17.3,17.3,74,0.00,CLR,,0.01,WeatherDisplay:10.37,2014-01-03 23:25:00,
2014-01-03 18:30:00,52.9,45.2,30.16,ENE,58,12.7,12.7,75,0.00,CLR,,0.01,WeatherDisplay:10.37,2014-01-03 23:30:00,
2014-01-03 18:35:00,52.8,45.1,30.17,NNE,15,12.7,12.7,75,0.00,CLR,,0.01,WeatherDisplay:10.37,2014-01-03 23:35:00,
2014-01-03 18:40:00,52.7,45.0,30.17,North,11,12.7,12.7,75,0.00,CLR,,0.01,WeatherDisplay:10.37,2014-01-03 23:40:00,
2014-01-03 18:45:00,52.6,45.2,30.17,NNE,19,11.5,11.5,76,0.00,CLR,,0.01,WeatherDisplay:10.37,2014-01-03 23:45:00,
2014-01-03 18:50:00,52.5,45.2,30.17,North,1,12.7,12.7,76,0.00,CLR,,0.01,WeatherDisplay:10.37,2014-01-03 23:50:00,
2014-01-03 18:55:00,52.4,45.1,30.17,NNE,26,11.5,11.5,76,0.00,CLR,,0.01,WeatherDisplay:10.37,2014-01-03 23:55:00,
2014-01-03 19:00:00,52.3,45.0,30.19,NNW,334,8.1,8.1,76,0.00,CLR,,0.01,WeatherDisplay:10.37,2014-01-04 00:00:00,
2014-01-03 19:05:00,52.2,45.2,30.19,NNE,19,12.7,12.7,77,0.00,CLR,,0.01,WeatherDisplay:10.37,2014-01-04 00:05:00,
2014-01-03 19:10:00,52.1,45.1,30.19,North,360,9.2,9.2,77,0.00,CLR,,0.01,WeatherDisplay:10.37,2014-01-04 00:10:00,
2014-01-03 19:15:00,52.1,45.1,30.20,NNE,15,10.4,10.4,77,0.00,CLR,,0.01,WeatherDisplay:10.37,2014-01-04 00:15:00,
2014-01-03 19:19:00,52.0,45.0,30.20,NNE,26,10.4,10.4,77,0.00,CLR,,0.01,WeatherDisplay:10.37,2014-01-04 00:19:00,
2014-01-03 19:24:00,51.9,44.9,30.19,NW,316,9.2,9.2,77,0.00,CLR,,0.01,WeatherDisplay:10.37,2014-01-04 00:24:00,
2014-01-03 19:29:00,51.7,44.7,30.20,NW,319,10.4,10.4,77,0.00,CLR,,0.01,WeatherDisplay:10.37,2014-01-04 00:29:00,
2014-01-03 19:34:00,51.6,45.0,30.21,NNW,334,9.2,9.2,78,0.00,CLR,,0.01,WeatherDisplay:10.37,2014-01-04 00:34:00,
2014-01-03 19:39:00,51.4,44.8,30.20,North,349,8.1,8.1,78,0.00,CLR,,0.01,WeatherDisplay:10.37,2014-01-04 00:39:00,
2014-01-03 19:44:00,51.3,44.7,30.21,NNW,328,9.2,9.2,78,0.00,CLR,,0.01,WeatherDisplay:10.37,2014-01-04 00:44:00,
2014-01-03 19:49:00,51.2,44.6,30.20,NNE,29,12.0,12.0,78,0.00,CLR,,0.01,WeatherDisplay:10.37,2014-01-04 00:49:00,
2014-01-03 19:54:00,51.2,44.9,30.19,NNW,348,9.2,9.2,79,0.00,CLR,,0.01,WeatherDisplay:10.37,2014-01-04 00:54:00,
2014-01-03 19:59:00,51.0,44.7,30.20,NNE,19,9.2,9.2,79,0.00,CLR,,0.01,WeatherDisplay:10.37,2014-01-04 00:59:00,
2014-01-03 20:04:00,50.9,44.6,30.21,North,354,10.4,10.4,79,0.00,CLR,,0.01,WeatherDisplay:10.37,2014-01-04 01:04:00,
2014-01-03 20:09:00,50.9,44.6,30.20,North,9,9.2,9.2,79,0.00,CLR,,0.01,WeatherDisplay:10.37,2014-01-04 01:09:00,
2014-01-03 20:14:00,50.9,44.6,30.21,NNW,331,8.1,8.1,79,0.00,CLR,,0.01,WeatherDisplay:10.37,2014-01-04 01:14:00,
2014-01-03 20:19:00,50.8,44.5,30.21,NW,324,10.4,10.4,79,0.00,CLR,,0.01,WeatherDisplay:10.37,2014-01-04 01:19:00,
2014-01-03 20:24:00,50.7,44.4,30.21,NNE,23,11.5,11.5,79,0.00,CLR,,0.01,WeatherDisplay:10.37,2014-01-04 01:24:00,
2014-01-03 20:29:00,50.7,44.4,30.21,NW,324,5.8,5.8,79,0.00,CLR,,0.01,WeatherDisplay:10.37,2014-01-04 01:29:00,
2014-01-03 20:34:00,50.6,44.7,30.21,NNE,22,11.5,11.5,80,0.00,CLR,,0.01,WeatherDisplay:10.37,2014-01-04 01:34:00,
2014-01-03 20:39:00,50.5,44.2,30.21,NW,314,8.0,8.0,79,0.00,CLR,,0.01,WeatherDisplay:10.37,2014-01-04 01:39:00,
2014-01-03 20:44:00,50.4,44.1,30.21,North,354,8.1,8.1,79,0.00,CLR,,0.01,WeatherDisplay:10.37,2014-01-04 01:44:00,
2014-01-03 20:49:00,50.4,44.5,30.22,NW,314,11.5,11.5,80,0.00,CLR,,0.01,WeatherDisplay:10.37,2014-01-04 01:49:00,
2014-01-03 20:54:00,50.3,44.4,30.22,NNW,338,10.4,10.4,80,0.00,CLR,,0.01,WeatherDisplay:10.37,2014-01-04 01:54:00,
2014-01-03 20:59:00,50.2,44.3,30.22,North,4,11.5,11.5,80,0.00,CLR,,0.01,WeatherDisplay:10.37,2014-01-04 01:59:00,
2014-01-03 21:04:00,50.0,44.1,30.22,NNW,340,13.8,13.8,80,0.00,CLR,,0.01,WeatherDisplay:10.37,2014-01-04 02:04:00,
2014-01-03 21:09:00,49.9,44.0,30.21,NNW,332,12.0,12.0,80,0.00,CLR,,0.01,WeatherDisplay:10.37,2014-01-04 02:09:00,
2014-01-03 21:14:00,49.7,43.8,30.22,NNW,338,13.0,13.0,80,0.00,CLR,,0.01,WeatherDisplay:10.37,2014-01-04 02:14:00,
2014-01-03 21:19:00,49.6,43.7,30.21,North,360,8.1,8.1,80,0.00,CLR,,0.01,WeatherDisplay:10.37,2014-01-04 02:19:00,
2014-01-03 21:24:00,49.4,43.2,30.21,NNE,22,8.1,8.1,79,0.00,CLR,,0.01,WeatherDisplay:10.37,2014-01-04 02:24:00,
2014-01-03 21:29:00,49.4,43.5,30.21,North,350,8.1,8.1,80,0.00,CLR,,0.01,WeatherDisplay:10.37,2014-01-04 02:29:00,
2014-01-03 21:34:00,49.4,43.5,30.21,North,350,8.1,8.1,80,0.00,CLR,,0.01,WeatherDisplay:10.37,2014-01-04 02:34:00,
2014-01-03 21:58:00,49.1,43.2,30.21,NNE,20,11.0,11.0,80,0.00,CLR,,0.01,WeatherDisplay:10.37,2014-01-04 02:58:00,
2014-01-03 22:03:00,49.0,43.1,30.21,NNE,23,18.4,18.4,80,0.00,CLR,,0.01,WeatherDisplay:10.37,2014-01-04 03:03:00,
2014-01-03 22:08:00,49.0,43.1,30.21,NNW,333,12.7,12.7,80,0.00,CLR,,0.01,WeatherDisplay:10.37,2014-01-04 03:08:00,
2014-01-03 22:13:00,49.0,43.1,30.21,North,354,11.5,11.5,80,0.00,CLR,,0.01,WeatherDisplay:10.37,2014-01-04 03:13:00,
2014-01-03 22:18:00,49.0,43.1,30.21,NNW,348,11.5,11.5,80,0.00,CLR,,0.01,WeatherDisplay:10.37,2014-01-04 03:18:00,
2014-01-03 22:23:00,49.0,43.4,30.21,NNW,336,17.0,17.0,81,0.00,CLR,,0.01,WeatherDisplay:10.37,2014-01-04 03:23:00,
2014-01-03 22:28:00,49.0,43.1,30.21,NNW,330,10.0,10.0,80,0.00,CLR,,0.01,WeatherDisplay:10.37,2014-01-04 03:28:00,
2014-01-03 22:33:00,48.9,43.3,30.21,NNW,346,12.7,12.7,81,0.00,CLR,,0.01,WeatherDisplay:10.37,2014-01-04 03:33:00,
2014-01-03 22:38:00,49.0,43.4,30.21,NNW,337,11.5,11.5,81,0.00,CLR,,0.01,WeatherDisplay:10.37,2014-01-04 03:38:00,
2014-01-03 22:43:00,48.9,43.3,30.21,NNW,339,7.0,7.0,81,0.00,CLR,,0.01,WeatherDisplay:10.37,2014-01-04 03:43:00,
2014-01-03 22:48:00,49.0,43.4,30.21,NNE,15,10.4,10.4,81,0.00,CLR,,0.01,WeatherDisplay:10.37,2014-01-04 03:48:00,
2014-01-03 22:53:00,49.1,43.5,30.21,North,356,6.9,6.9,81,0.00,CLR,,0.01,WeatherDisplay:10.37,2014-01-04 03:53:00,
2014-01-03 22:58:00,49.1,43.8,30.21,NNE,12,12.0,12.0,82,0.00,CLR,,0.01,WeatherDisplay:10.37,2014-01-04 03:58:00,
2014-01-03 23:03:00,49.1,43.8,30.21,NNW,345,12.7,12.7,82,0.00,CLR,,0.01,WeatherDisplay:10.37,2014-01-04 04:03:00,
2014-01-03 23:08:00,49.1,43.8,30.21,North,6,9.2,9.2,82,0.00,CLR,,0.01,WeatherDisplay:10.37,2014-01-04 04:08:00,
2014-01-03 23:13:00,49.1,43.8,30.21,NW,320,11.5,11.5,82,0.00,CLR,,0.01,WeatherDisplay:10.37,2014-01-04 04:13:00,
2014-01-03 23:18:00,49.0,43.7,30.21,WNW,300,9.2,9.2,82,0.00,CLR,,0.01,WeatherDisplay:10.37,2014-01-04 04:18:00,
2014-01-03 23:23:00,48.9,43.6,30.20,North,349,10.4,10.4,82,0.00,CLR,,0.01,WeatherDisplay:10.37,2014-01-04 04:23:00,
2014-01-03 23:28:00,48.9,44.0,30.20,WNW,287,11.5,11.5,83,0.00,CLR,,0.01,WeatherDisplay:10.37,2014-01-04 04:28:00,
2014-01-03 23:33:00,48.9,44.0,30.20,NNE,25,11.5,11.5,83,0.00,CLR,,0.01,WeatherDisplay:10.37,2014-01-04 04:33:00,
2014-01-03 23:38:00,48.9,44.0,30.20,NNW,333,9.2,9.2,83,0.00,CLR,,0.01,WeatherDisplay:10.37,2014-01-04 04:38:00,
2014-01-03 23:43:00,48.8,44.2,30.19,North,11,11.5,11.5,84,0.00,CLR,,0.01,WeatherDisplay:10.37,2014-01-04 04:43:00,
2014-01-03 23:48:00,48.8,44.2,30.19,NNE,16,8.1,8.1,84,0.00,CLR,,0.01,WeatherDisplay:10.37,2014-01-04 04:48:00,
2014-01-03 23:53:00,48.7,44.1,30.18,NNW,338,9.2,9.2,84,0.00,CLR,,0.01,WeatherDisplay:10.37,2014-01-04 04:53:00,
2014-01-03 23:58:00,48.7,44.4,30.18,NNW,347,11.5,11.5,85,0.00,CLR,,0.01,WeatherDisplay:10.37,2014-01-04 04:58:00,